createdAt,value
2023-05-16T00:00:19.227Z,8.16
2023-05-16T00:02:47.381Z,8.16
2023-05-16T00:05:19.248Z,8.20
2023-05-16T00:07:50.018Z,8.24
2023-05-16T00:10:19.393Z,8.29
2023-05-16T00:12:58.787Z,8.37
2023-05-16T00:15:25.745Z,8.42
2023-05-16T00:17:54.867Z,8.42
2023-05-16T00:20:54.399Z,8.39
2023-05-16T00:23:29.923Z,8.38
2023-05-16T00:25:57.009Z,8.31
2023-05-16T00:28:24.247Z,8.33
2023-05-16T00:31:18.229Z,8.29
2023-05-16T00:33:45.135Z,8.28
2023-05-16T00:36:12.160Z,8.28
2023-05-16T00:38:39.269Z,8.28
2023-05-16T00:41:15.386Z,8.24
2023-05-16T00:44:17.743Z,8.18
2023-05-16T00:46:47.741Z,8.11
2023-05-16T00:49:16.055Z,8.05
2023-05-16T00:51:46.239Z,7.97
2023-05-16T00:54:14.940Z,7.92
2023-05-16T00:56:45.255Z,7.90
2023-05-16T00:59:23.695Z,7.88
2023-05-16T01:01:59.029Z,7.84
2023-05-16T01:04:30.830Z,7.82
2023-05-16T01:06:58.567Z,7.81
2023-05-16T01:09:27.923Z,7.78
2023-05-16T01:12:37.861Z,7.76
2023-05-16T01:15:39.748Z,7.78
2023-05-16T01:18:47.237Z,7.84
2023-05-16T01:21:47.254Z,7.96
2023-05-16T01:24:45.146Z,8.05
2023-05-16T01:27:16.017Z,8.12
2023-05-16T01:29:42.952Z,8.19
2023-05-16T01:32:09.812Z,8.25
2023-05-16T01:34:39.649Z,8.31
2023-05-16T01:37:24.996Z,8.33
2023-05-16T01:40:16.767Z,8.40
2023-05-16T01:42:51.036Z,8.44
2023-05-16T01:45:34.684Z,8.47
2023-05-16T01:48:27.760Z,8.51
2023-05-16T01:51:06.301Z,8.51
2023-05-16T01:53:45.802Z,8.61
2023-05-16T01:56:26.821Z,8.62
2023-05-16T01:59:12.045Z,8.68
2023-05-16T02:01:45.535Z,8.71
2023-05-16T02:04:24.463Z,8.73
2023-05-16T02:07:25.950Z,8.76
2023-05-16T02:09:59.859Z,8.78
2023-05-16T02:12:29.903Z,8.77
2023-05-16T02:14:57.245Z,8.80
2023-05-16T02:17:24.642Z,8.83
2023-05-16T02:19:55.586Z,8.82
2023-05-16T02:22:22.862Z,8.85
2023-05-16T02:24:49.823Z,8.88
2023-05-16T02:27:16.581Z,8.83
2023-05-16T02:29:45.864Z,8.82
2023-05-16T02:32:12.574Z,8.81
2023-05-16T02:34:45.346Z,8.87
2023-05-16T02:37:13.478Z,8.89
2023-05-16T02:39:46.682Z,8.92
2023-05-16T02:42:13.756Z,8.91
2023-05-16T02:44:43.132Z,8.88
2023-05-16T02:47:09.997Z,8.89
2023-05-16T02:52:18.916Z,8.91
2023-05-16T02:54:48.781Z,8.92
2023-05-16T02:57:22.858Z,8.92
2023-05-16T02:59:49.657Z,8.90
2023-05-16T03:02:16.310Z,8.89
2023-05-16T03:04:43.357Z,8.88
2023-05-16T03:07:10.344Z,8.91
2023-05-16T03:09:45.927Z,8.93
2023-05-16T03:12:12.671Z,8.90
2023-05-16T03:14:45.016Z,8.89
2023-05-16T03:17:11.768Z,8.91
2023-05-16T03:19:47.567Z,8.91
2023-05-16T03:22:20.627Z,8.92
2023-05-16T03:24:47.434Z,8.92
2023-05-16T03:27:17.300Z,8.93
2023-05-16T03:29:44.297Z,8.92
2023-05-16T03:32:12.205Z,8.96
2023-05-16T03:34:50.945Z,8.99
2023-05-16T03:37:20.173Z,9.03
2023-05-16T03:39:50.013Z,9.04
2023-05-16T03:42:18.803Z,9.02
2023-05-16T03:44:48.705Z,9.03
2023-05-16T03:47:16.093Z,9.03
2023-05-16T03:49:45.838Z,9.06
2023-05-16T03:52:14.792Z,9.02
2023-05-16T03:54:47.058Z,9.03
2023-05-16T03:57:17.047Z,9.05
2023-05-16T03:59:47.013Z,9.06
2023-05-16T04:02:19.874Z,9.04
2023-05-16T04:04:46.817Z,9.05
2023-05-16T04:07:16.325Z,9.03
2023-05-16T04:09:46.213Z,9.06
2023-05-16T04:12:15.532Z,9.08
2023-05-16T04:14:49.864Z,9.08
2023-05-16T04:17:16.686Z,9.06
2023-05-16T04:19:46.617Z,9.05
2023-05-16T04:22:13.671Z,9.08
2023-05-16T04:24:45.386Z,9.05
2023-05-16T04:27:12.422Z,9.10
2023-05-16T04:29:41.966Z,9.07
2023-05-16T04:32:09.003Z,9.14
2023-05-16T04:34:39.808Z,9.15
2023-05-16T04:37:08.631Z,9.15
2023-05-16T04:39:36.979Z,9.23
2023-05-16T04:42:07.688Z,9.23
2023-05-16T04:44:34.615Z,9.22
2023-05-16T04:47:09.199Z,9.26
2023-05-16T04:49:36.017Z,9.27
2023-05-16T04:52:03.338Z,9.26
2023-05-16T04:54:30.017Z,9.27
2023-05-16T04:56:57.343Z,9.22
2023-05-16T04:59:27.413Z,9.25
2023-05-16T05:01:57.279Z,9.24
2023-05-16T05:04:25.147Z,9.28
2023-05-16T05:06:54.832Z,9.29
2023-05-16T05:09:21.979Z,9.38
2023-05-16T05:11:48.702Z,9.42
2023-05-16T05:14:17.625Z,9.40
2023-05-16T05:16:47.238Z,9.36
2023-05-16T05:19:14.157Z,9.32
2023-05-16T05:21:43.351Z,9.31
2023-05-16T05:24:10.413Z,9.32
2023-05-16T05:26:37.459Z,9.44
2023-05-16T05:29:06.690Z,9.55
2023-05-16T05:31:35.057Z,9.64
2023-05-16T05:34:03.244Z,9.56
2023-05-16T05:36:33.108Z,9.52
2023-05-16T05:39:06.634Z,9.52
2023-05-16T05:41:33.505Z,9.54
2023-05-16T05:44:00.739Z,9.60
2023-05-16T05:46:27.948Z,9.70
2023-05-16T05:48:55.897Z,9.78
2023-05-16T05:51:29.703Z,9.85
2023-05-16T05:53:57.654Z,9.85
2023-05-16T05:56:26.370Z,9.95
2023-05-16T05:58:59.046Z,9.94
2023-05-16T06:07:09.060Z,9.96
2023-05-16T06:09:37.836Z,10.05
2023-05-16T06:15:02.022Z,10.52
2023-05-16T06:17:31.286Z,10.58
2023-05-16T06:20:11.322Z,10.76
2023-05-16T06:25:19.835Z,10.63
2023-05-16T06:27:46.655Z,10.43
2023-05-16T06:30:16.923Z,10.57
2023-05-16T06:32:46.855Z,10.73
2023-05-16T06:35:13.794Z,11.56
2023-05-16T06:37:42.895Z,11.67
2023-05-16T06:40:12.085Z,11.77
2023-05-16T06:42:39.722Z,11.52
2023-05-16T06:45:13.722Z,11.60
2023-05-16T06:47:50.106Z,11.87
2023-05-16T06:50:20.082Z,11.71
2023-05-16T06:52:56.062Z,12.94
2023-05-16T06:55:23.883Z,12.97
2023-05-16T06:58:18.289Z,12.36
2023-05-16T07:00:55.105Z,12.70
2023-05-16T07:03:25.316Z,13.22
2023-05-16T07:05:55.455Z,13.79
2023-05-16T07:08:22.244Z,14.51
2023-05-16T07:10:55.162Z,14.06
2023-05-16T07:13:21.900Z,14.64
2023-05-16T07:15:48.669Z,14.53
2023-05-16T07:18:18.157Z,14.69
2023-05-16T07:20:51.527Z,14.36
2023-05-16T07:23:21.045Z,13.50
2023-05-16T07:25:54.093Z,14.42
2023-05-16T07:28:22.125Z,14.83
2023-05-16T07:30:58.902Z,13.92
2023-05-16T07:33:28.172Z,13.24
2023-05-16T07:36:07.786Z,12.90
2023-05-16T07:38:47.957Z,13.32
2023-05-16T07:41:14.810Z,14.00
2023-05-16T07:43:41.539Z,13.67
2023-05-16T07:46:08.438Z,13.70
2023-05-16T07:48:35.383Z,13.24
2023-05-16T07:51:02.190Z,13.08
2023-05-16T07:53:31.311Z,12.42
2023-05-16T07:55:58.113Z,12.77
2023-05-16T07:58:25.250Z,13.77
2023-05-16T08:00:52.858Z,13.62
2023-05-16T08:03:24.123Z,12.86
2023-05-16T08:06:06.291Z,12.62
2023-05-16T08:08:36.487Z,12.99
2023-05-16T08:11:03.668Z,13.48
2023-05-16T08:13:31.707Z,13.22
2023-05-16T08:15:58.665Z,14.35
2023-05-16T08:18:25.539Z,15.16
2023-05-16T08:20:54.970Z,15.79
2023-05-16T08:23:21.852Z,15.89
2023-05-16T08:25:51.831Z,15.36
2023-05-16T08:28:18.614Z,14.70
2023-05-16T08:30:47.799Z,14.08
2023-05-16T08:33:15.221Z,13.96
2023-05-16T08:35:46.848Z,14.73
2023-05-16T08:38:13.732Z,15.42
2023-05-16T08:40:41.295Z,15.17
2023-05-16T08:43:08.727Z,14.39
2023-05-16T08:45:35.744Z,13.57
2023-05-16T08:48:08.694Z,13.17
2023-05-16T08:50:37.498Z,14.41
2023-05-16T08:53:14.826Z,15.18
2023-05-16T08:55:44.231Z,15.82
2023-05-16T08:58:13.000Z,16.02
2023-05-16T09:00:40.924Z,15.73
2023-05-16T09:03:08.465Z,15.10
2023-05-16T09:05:36.255Z,15.23
2023-05-16T09:08:03.226Z,15.07
2023-05-16T09:10:30.177Z,14.51
2023-05-16T09:12:57.122Z,14.08
2023-05-16T09:15:23.923Z,14.64
2023-05-16T09:18:01.487Z,15.60
2023-05-16T09:20:28.648Z,16.00
2023-05-16T09:23:00.924Z,16.45
2023-05-16T09:25:32.225Z,16.58
2023-05-16T09:28:03.049Z,15.65
2023-05-16T09:30:35.558Z,14.81
2023-05-16T09:33:06.637Z,14.07
2023-05-16T09:38:04.196Z,13.99
2023-05-16T09:40:34.104Z,14.32
2023-05-16T09:43:07.794Z,14.53
2023-05-16T09:45:36.926Z,15.25
2023-05-16T09:48:14.960Z,15.78
2023-05-16T09:50:54.410Z,15.90
2023-05-16T09:53:33.492Z,16.13
2023-05-16T09:56:12.658Z,16.67
2023-05-16T09:58:42.826Z,16.53
2023-05-16T10:01:13.018Z,16.49
2023-05-16T10:03:44.087Z,15.73
2023-05-16T10:06:13.745Z,14.82
2023-05-16T10:08:43.848Z,14.01
2023-05-16T10:11:17.126Z,13.45
2023-05-16T10:16:42.078Z,12.85
2023-05-16T10:19:13.944Z,12.73
2023-05-16T10:27:41.611Z,14.97
2023-05-16T10:30:10.985Z,15.57
2023-05-16T10:32:41.956Z,14.97
2023-05-16T10:35:11.098Z,14.67
2023-05-16T10:37:42.176Z,14.30
2023-05-16T10:40:11.638Z,14.31
2023-05-16T10:42:44.442Z,14.95
2023-05-16T10:45:37.009Z,16.24
2023-05-16T10:48:15.460Z,15.44
2023-05-16T10:51:03.578Z,15.29
2023-05-16T10:53:36.255Z,15.52
2023-05-16T10:56:12.045Z,16.47
2023-05-16T10:58:38.753Z,17.23
2023-05-16T11:01:30.394Z,17.27
2023-05-16T11:04:20.217Z,17.48
2023-05-16T11:07:28.377Z,16.79
2023-05-16T11:10:36.503Z,17.53
2023-05-16T11:13:26.502Z,15.78
2023-05-16T11:16:39.512Z,14.27
2023-05-16T11:19:10.986Z,13.37
2023-05-16T11:22:19.465Z,12.77
2023-05-16T11:25:14.370Z,12.58
2023-05-16T11:27:47.898Z,12.45
2023-05-16T11:30:19.404Z,12.54
2023-05-16T11:32:48.777Z,14.06
2023-05-16T11:35:18.687Z,14.67
2023-05-16T11:37:48.656Z,14.45
2023-05-16T11:40:17.294Z,13.81
2023-05-16T11:42:48.526Z,13.74
2023-05-16T11:45:23.021Z,13.67
2023-05-16T11:47:50.282Z,13.41
2023-05-16T11:50:23.759Z,13.88
2023-05-16T11:53:15.923Z,13.95
2023-05-16T11:55:43.054Z,14.05
2023-05-16T11:58:12.281Z,15.46
2023-05-16T12:03:38.893Z,13.81
2023-05-16T12:06:14.404Z,13.07
2023-05-16T12:19:48.118Z,13.23
2023-05-16T12:22:21.956Z,13.03
2023-05-16T12:27:33.575Z,12.71
2023-05-16T12:30:06.280Z,12.80
2023-05-16T12:36:01.681Z,12.88
2023-05-16T12:44:22.165Z,14.10
2023-05-16T13:06:12.051Z,13.06
2023-05-16T13:08:42.812Z,13.07
2023-05-16T13:16:36.094Z,13.32
2023-05-16T13:19:16.235Z,14.19
2023-05-16T13:29:51.582Z,15.27
2023-05-16T13:35:13.023Z,15.24
2023-05-16T13:37:42.713Z,14.48
2023-05-16T13:40:12.020Z,14.54
2023-05-16T13:48:10.173Z,15.43
2023-05-16T13:50:44.199Z,15.03
2023-05-16T13:58:37.059Z,14.73
2023-05-16T14:03:57.616Z,13.16
2023-05-16T14:26:10.968Z,12.01
2023-05-16T14:39:31.849Z,12.55
2023-05-16T14:42:08.683Z,12.61
2023-05-16T14:50:03.133Z,12.65
2023-05-16T14:52:42.280Z,13.03
2023-05-16T14:55:16.409Z,13.64
2023-05-16T15:00:29.561Z,14.81
2023-05-16T15:11:08.955Z,12.95
2023-05-16T15:13:36.085Z,12.76
2023-05-16T15:16:12.207Z,12.26
2023-05-16T15:18:42.816Z,11.94
2023-05-16T15:21:16.318Z,11.47
2023-05-16T15:26:39.030Z,10.65
2023-05-16T15:29:36.747Z,10.17
2023-05-16T15:32:12.041Z,9.58
2023-05-16T15:43:12.853Z,8.41
2023-05-16T15:48:25.437Z,8.23
2023-05-16T15:53:36.598Z,8.29
2023-05-16T15:56:06.222Z,8.24
2023-05-16T16:09:31.224Z,8.01
2023-05-16T16:11:58.091Z,8.05
2023-05-16T16:14:25.704Z,7.89
2023-05-16T16:16:55.131Z,7.72
2023-05-16T16:19:40.113Z,7.63
2023-05-16T16:22:07.004Z,7.49
2023-05-16T16:24:56.820Z,7.35
2023-05-16T16:27:26.451Z,7.28
2023-05-16T16:29:55.366Z,7.27
2023-05-16T16:32:23.335Z,7.21
2023-05-16T16:34:50.478Z,7.21
2023-05-16T16:37:17.299Z,7.14
2023-05-16T16:58:49.269Z,7.27
2023-05-16T17:01:16.161Z,7.33
2023-05-16T17:33:42.174Z,7.74
2023-05-16T17:41:37.853Z,7.77
2023-05-16T18:00:26.305Z,7.88
2023-05-16T18:21:46.492Z,7.76
2023-05-16T18:27:01.078Z,7.73
2023-05-16T18:37:32.187Z,7.79
2023-05-16T18:48:24.748Z,7.81
2023-05-16T18:56:28.045Z,7.65
2023-05-16T19:01:42.548Z,7.68
2023-05-16T19:04:09.463Z,7.70
2023-05-16T19:06:40.294Z,7.75
2023-05-16T19:14:34.183Z,7.86
2023-05-16T19:22:22.534Z,7.81
2023-05-16T19:24:51.308Z,7.79
2023-05-16T19:33:00.143Z,7.74
2023-05-16T19:38:15.929Z,7.72
2023-05-16T19:43:59.356Z,7.63
2023-05-16T19:46:30.573Z,7.62
2023-05-16T20:00:15.782Z,7.67
2023-05-16T20:02:50.244Z,7.68
2023-05-16T20:10:54.634Z,7.69
2023-05-16T20:35:16.428Z,7.76
2023-05-16T21:18:28.551Z,7.82
2023-05-16T21:20:59.131Z,7.84
2023-05-16T21:34:16.484Z,7.85
2023-05-16T21:53:03.035Z,7.65
2023-05-16T21:55:37.305Z,7.68
2023-05-16T21:58:17.223Z,7.72
2023-05-16T22:00:43.876Z,7.80
2023-05-16T22:03:11.242Z,7.82
2023-05-16T22:05:40.487Z,7.85
2023-05-16T22:08:08.280Z,7.83
2023-05-16T22:10:37.579Z,7.84
2023-05-16T22:13:09.923Z,7.86
2023-05-16T22:15:36.634Z,7.90
2023-05-16T22:18:03.529Z,7.92
2023-05-16T22:20:30.299Z,7.93
2023-05-16T22:22:59.551Z,7.96
2023-05-16T22:25:26.263Z,7.97
2023-05-16T22:27:56.485Z,7.92
2023-05-16T22:30:23.123Z,7.88
2023-05-16T22:32:49.908Z,7.87
2023-05-16T22:35:17.054Z,7.84
2023-05-16T22:37:43.781Z,7.82
2023-05-16T22:40:18.873Z,7.82
2023-05-16T22:42:45.506Z,7.75
2023-05-16T22:45:18.160Z,7.64
2023-05-16T22:47:48.213Z,7.57
2023-05-16T22:50:33.594Z,7.53
2023-05-16T22:53:36.275Z,7.48
2023-05-16T22:56:23.222Z,7.38
2023-05-16T22:58:50.238Z,7.34
2023-05-16T23:01:16.879Z,7.27
2023-05-16T23:03:45.059Z,7.18
2023-05-16T23:06:18.254Z,7.11
2023-05-16T23:08:44.985Z,7.01
2023-05-16T23:11:15.612Z,6.89
2023-05-16T23:13:42.211Z,6.76
2023-05-16T23:16:08.846Z,6.65
2023-05-16T23:18:35.774Z,6.54
2023-05-16T23:21:08.788Z,6.46
2023-05-16T23:23:37.679Z,6.41
2023-05-16T23:26:04.645Z,6.36
2023-05-16T23:28:31.399Z,6.29
2023-05-16T23:30:58.143Z,6.21
2023-05-16T23:33:25.175Z,6.19
2023-05-16T23:35:51.967Z,6.18
2023-05-16T23:38:18.835Z,6.22
2023-05-16T23:40:45.675Z,6.21
2023-05-16T23:43:16.276Z,6.25
2023-05-16T23:45:43.013Z,6.29
2023-05-16T23:48:09.894Z,6.37
2023-05-16T23:50:40.072Z,6.42
2023-05-16T23:53:18.604Z,6.50
2023-05-16T23:55:46.024Z,6.54
2023-05-16T23:58:12.716Z,6.56
